createdAt,value
2022-11-28T00:01:43.040Z,101889.56
2022-11-28T00:04:11.509Z,101886.97
2022-11-28T00:06:45.370Z,101882.59
2022-11-28T00:09:14.461Z,101879.06
2022-11-28T00:11:43.798Z,101883.50
2022-11-28T00:14:11.389Z,101882.63
2022-11-28T00:16:38.873Z,101874.69
2022-11-28T00:19:07.172Z,101866.72
2022-11-28T00:21:35.511Z,101866.69
2022-11-28T00:24:03.385Z,101863.13
2022-11-28T00:26:38.405Z,101864.03
2022-11-28T00:29:07.827Z,101860.47
2022-11-28T00:31:43.288Z,101856.03
2022-11-28T00:34:13.961Z,101854.28
2022-11-28T00:36:42.453Z,101857.81
2022-11-28T00:39:09.632Z,101848.97
2022-11-28T00:41:37.005Z,101841.91
2022-11-28T00:44:04.096Z,101851.66
2022-11-28T00:46:31.128Z,101845.47
2022-11-28T00:48:59.197Z,101848.13
2022-11-28T00:51:31.215Z,101842.78
2022-11-28T00:54:00.681Z,101839.25
2022-11-28T00:56:32.684Z,101850.72
2022-11-28T00:59:00.103Z,101844.56
2022-11-28T01:01:38.547Z,101843.63
2022-11-28T01:04:09.633Z,101841.84
2022-11-28T01:06:44.848Z,101840.13
2022-11-28T01:09:18.097Z,101837.47
2022-11-28T01:11:46.798Z,101830.38
2022-11-28T01:14:13.916Z,101829.47
2022-11-28T01:16:41.092Z,101828.59
2022-11-28T01:19:08.695Z,101833.88
2022-11-28T01:21:36.315Z,101833.91
2022-11-28T01:24:04.483Z,101829.47
2022-11-28T01:26:31.875Z,101827.69
2022-11-28T01:29:00.604Z,101820.59
2022-11-28T01:31:29.777Z,101805.59
2022-11-28T01:33:57.907Z,101814.41
2022-11-28T01:36:26.923Z,101814.41
2022-11-28T01:38:54.174Z,101814.41
2022-11-28T01:41:26.111Z,101806.47
2022-11-28T01:44:05.410Z,101810.84
2022-11-28T01:46:34.118Z,101798.50
2022-11-28T01:49:21.908Z,101794.94
2022-11-28T01:51:56.455Z,101787.00
2022-11-28T01:54:25.854Z,101790.50
2022-11-28T01:57:01.494Z,101794.94
2022-11-28T01:59:35.063Z,101798.50
2022-11-28T02:02:07.856Z,101793.22
2022-11-28T02:04:35.360Z,101801.97
2022-11-28T02:07:02.632Z,101801.09
2022-11-28T02:09:29.676Z,101799.25
2022-11-28T02:12:23.393Z,101795.69
2022-11-28T02:15:08.492Z,101786.81
2022-11-28T02:18:01.924Z,101793.03
2022-11-28T02:21:00.034Z,101790.41
2022-11-28T02:23:45.757Z,101782.44
2022-11-28T02:26:24.931Z,101776.28
2022-11-28T02:29:25.549Z,101775.41
2022-11-28T02:32:20.357Z,101769.25
2022-11-28T02:35:17.063Z,101767.47
2022-11-28T02:37:53.014Z,101766.53
2022-11-28T02:40:31.143Z,101769.16
2022-11-28T02:43:30.784Z,101758.63
2022-11-28T02:46:23.405Z,101756.84
2022-11-28T02:49:02.443Z,101747.97
2022-11-28T02:51:49.286Z,101738.28
2022-11-28T02:54:18.619Z,101745.34
2022-11-28T02:56:54.561Z,101734.72
2022-11-28T02:59:33.666Z,101730.28
2022-11-28T03:02:02.065Z,101733.78
2022-11-28T03:04:58.147Z,101724.03
2022-11-28T03:07:49.919Z,101727.56
2022-11-28T03:10:48.900Z,101721.41
2022-11-28T03:13:23.319Z,101729.41
2022-11-28T03:16:19.363Z,101729.38
2022-11-28T03:19:01.422Z,101720.53
2022-11-28T03:21:48.794Z,101718.75
2022-11-28T03:24:31.646Z,101722.31
2022-11-28T03:27:24.741Z,101718.75
2022-11-28T03:30:01.172Z,101716.09
2022-11-28T03:32:33.852Z,101715.22
2022-11-28T03:35:07.931Z,101716.97
2022-11-28T03:37:41.353Z,101712.56
2022-11-28T03:40:15.830Z,101708.13
2022-11-28T03:42:58.044Z,101700.19
2022-11-28T03:45:29.792Z,101701.91
2022-11-28T03:48:10.334Z,101701.91
2022-11-28T03:51:14.767Z,101696.56
2022-11-28T03:53:51.871Z,101692.13
2022-11-28T03:56:43.861Z,101685.00
2022-11-28T03:59:23.816Z,101689.41
2022-11-28T04:02:03.874Z,101685.88
2022-11-28T04:04:52.613Z,101686.75
2022-11-28T04:07:44.537Z,101681.44
2022-11-28T04:10:25.181Z,101691.19
2022-11-28T04:13:04.977Z,101683.22
2022-11-28T04:15:57.699Z,101689.38
2022-11-28T04:18:28.175Z,101684.94
2022-11-28T04:21:24.729Z,101678.78
2022-11-28T04:23:55.682Z,101685.81
2022-11-28T04:26:32.264Z,101676.97
2022-11-28T04:29:02.870Z,101683.16
2022-11-28T04:31:31.512Z,101691.97
2022-11-28T04:34:04.998Z,101685.84
2022-11-28T04:36:35.742Z,101690.31
2022-11-28T04:39:10.054Z,101681.50
2022-11-28T04:41:47.066Z,101678.84
2022-11-28T04:44:23.156Z,101677.06
2022-11-28T04:46:54.968Z,101677.97
2022-11-28T04:49:24.234Z,101683.28
2022-11-28T04:52:12.319Z,101677.97
2022-11-28T04:55:00.039Z,101679.72
2022-11-28T04:57:33.827Z,101668.25
2022-11-28T05:00:07.201Z,101660.22
2022-11-28T05:02:36.137Z,101665.59
2022-11-28T05:05:10.773Z,101667.31
2022-11-28T05:07:37.928Z,101664.66
2022-11-28T05:10:06.899Z,101663.81
2022-11-28T05:12:34.142Z,101658.44
2022-11-28T05:15:01.295Z,101666.38
2022-11-28T05:17:28.598Z,101662.88
2022-11-28T05:19:55.663Z,101655.78
2022-11-28T05:22:22.851Z,101662.00
2022-11-28T05:24:50.056Z,101657.56
2022-11-28T05:27:17.546Z,101659.28
2022-11-28T05:29:51.870Z,101657.56
2022-11-28T05:32:20.345Z,101656.63
2022-11-28T05:34:47.663Z,101659.34
2022-11-28T05:37:14.736Z,101664.66
2022-11-28T05:39:42.134Z,101666.41
2022-11-28T05:42:09.281Z,101657.59
2022-11-28T05:44:37.613Z,101647.91
2022-11-28T05:47:05.181Z,101654.13
2022-11-28T05:49:32.360Z,101657.66
2022-11-28T05:51:59.417Z,101657.69
2022-11-28T05:54:27.335Z,101661.28
2022-11-28T05:56:54.438Z,101648.88
2022-11-28T05:59:21.959Z,101638.28
2022-11-28T06:01:49.404Z,101632.97
2022-11-28T06:04:16.626Z,101633.84
2022-11-28T06:06:44.103Z,101632.94
2022-11-28T06:09:11.351Z,101637.38
2022-11-28T06:11:38.625Z,101630.28
2022-11-28T06:14:05.993Z,101622.31
2022-11-28T06:16:33.375Z,101619.66
2022-11-28T06:19:04.372Z,101614.34
2022-11-28T06:21:33.082Z,101612.63
2022-11-28T06:24:01.249Z,101613.56
2022-11-28T06:26:29.358Z,101607.34
2022-11-28T06:28:56.439Z,101604.75
2022-11-28T06:31:28.372Z,101610.94
2022-11-28T06:33:56.888Z,101617.97
2022-11-28T06:36:31.219Z,101608.25
2022-11-28T06:38:58.236Z,101608.41
2022-11-28T06:41:25.396Z,101607.50
2022-11-28T06:43:52.415Z,101611.91
2022-11-28T06:46:21.924Z,101608.41
2022-11-28T06:48:52.359Z,101616.34
2022-11-28T06:51:20.643Z,101603.97
2022-11-28T06:53:48.034Z,101602.19
2022-11-28T06:56:19.250Z,101604.84
2022-11-28T06:58:47.472Z,101596.91
2022-11-28T07:01:22.095Z,101604.00
2022-11-28T07:03:50.207Z,101597.81
2022-11-28T07:06:22.235Z,101596.91
2022-11-28T07:08:49.859Z,101600.47
2022-11-28T07:11:19.541Z,101603.13
2022-11-28T07:13:47.911Z,101606.69
2022-11-28T07:16:28.346Z,101596.09
2022-11-28T07:18:56.962Z,101597.81
2022-11-28T07:21:24.444Z,101597.81
2022-11-28T07:23:52.305Z,101588.06
2022-11-28T07:26:21.694Z,101592.44
2022-11-28T07:28:50.268Z,101587.13
2022-11-28T07:31:26.998Z,101586.19
2022-11-28T07:33:54.411Z,101591.44
2022-11-28T07:36:26.579Z,101593.25
2022-11-28T07:38:56.894Z,101588.81
2022-11-28T07:41:26.794Z,101594.09
2022-11-28T07:43:57.749Z,101589.66
2022-11-28T07:46:26.115Z,101598.44
2022-11-28T07:48:53.678Z,101594.91
2022-11-28T07:51:24.641Z,101594.81
2022-11-28T07:53:53.193Z,101594.75
2022-11-28T07:56:25.343Z,101596.44
2022-11-28T07:58:52.980Z,101589.34
2022-11-28T08:01:29.287Z,101593.72
2022-11-28T08:03:57.085Z,101598.91
2022-11-28T08:06:30.652Z,101608.56
2022-11-28T08:09:00.450Z,101623.59
2022-11-28T08:11:30.174Z,101621.75
2022-11-28T08:13:58.196Z,101619.09
2022-11-28T08:16:28.311Z,101618.16
2022-11-28T08:18:57.192Z,101616.28
2022-11-28T08:21:28.696Z,101607.41
2022-11-28T08:23:59.552Z,101607.47
2022-11-28T08:26:30.588Z,101605.66
2022-11-28T08:29:03.246Z,101600.28
2022-11-28T08:31:37.587Z,101591.41
2022-11-28T08:34:07.347Z,101587.09
2022-11-28T08:36:35.474Z,101584.31
2022-11-28T08:41:59.757Z,101586.81
2022-11-28T08:44:30.471Z,101596.47
2022-11-28T08:46:58.139Z,101592.84
2022-11-28T08:49:25.405Z,101593.72
2022-11-28T08:51:52.509Z,101586.63
2022-11-28T08:54:23.290Z,101581.31
2022-11-28T08:56:50.768Z,101583.94
2022-11-28T08:59:18.100Z,101582.13
2022-11-28T09:01:45.317Z,101578.53
2022-11-28T09:04:12.492Z,101579.38
2022-11-28T09:06:40.387Z,101585.50
2022-11-28T09:09:10.138Z,101578.38
2022-11-28T09:11:38.276Z,101587.19
2022-11-28T09:14:05.767Z,101590.69
2022-11-28T09:16:33.006Z,101583.53
2022-11-28T09:19:00.199Z,101586.19
2022-11-28T09:21:27.420Z,101594.06
2022-11-28T09:23:56.774Z,101598.50
2022-11-28T09:26:25.471Z,101603.72
2022-11-28T09:28:54.145Z,101596.53
2022-11-28T09:31:22.856Z,101602.63
2022-11-28T09:33:52.576Z,101591.09
2022-11-28T09:36:23.208Z,101596.31
2022-11-28T09:38:53.825Z,101598.88
2022-11-28T09:41:42.675Z,101588.22
2022-11-28T09:44:44.483Z,101594.31
2022-11-28T09:47:31.056Z,101600.53
2022-11-28T09:50:20.910Z,101606.66
2022-11-28T09:53:35.094Z,101606.59
2022-11-28T09:56:17.466Z,101600.50
2022-11-28T09:58:53.227Z,101599.53
2022-11-28T10:01:43.626Z,101596.06
2022-11-28T10:04:29.565Z,101588.00
2022-11-28T10:07:28.104Z,101587.03
2022-11-28T10:10:19.473Z,101597.59
2022-11-28T10:13:07.750Z,101586.06
2022-11-28T10:15:51.952Z,101583.31
2022-11-28T10:18:47.455Z,101577.22
2022-11-28T10:21:27.295Z,101583.13
2022-11-28T10:24:03.964Z,101575.31
2022-11-28T10:26:41.923Z,101582.38
2022-11-28T10:29:54.314Z,101569.00
2022-11-28T10:32:37.296Z,101563.56
2022-11-28T10:35:29.692Z,101554.59
2022-11-28T10:37:56.906Z,101552.94
2022-11-28T10:40:51.984Z,101548.44
2022-11-28T10:43:54.455Z,101543.09
2022-11-28T10:46:49.470Z,101543.88
2022-11-28T10:49:54.392Z,101538.47
2022-11-28T10:53:06.983Z,101535.72
2022-11-28T10:56:11.857Z,101543.59
2022-11-28T10:59:12.802Z,101532.88
2022-11-28T11:01:44.681Z,101534.59
2022-11-28T11:04:20.525Z,101525.03
2022-11-28T11:07:22.661Z,101522.28
2022-11-28T11:09:55.838Z,101524.84
2022-11-28T11:12:32.566Z,101517.78
2022-11-28T11:15:15.414Z,101515.94
2022-11-28T11:17:42.654Z,101516.78
2022-11-28T11:20:29.225Z,101510.50
2022-11-28T11:22:59.455Z,101506.00
2022-11-28T11:25:30.261Z,101503.31
2022-11-28T11:28:02.041Z,101496.97
2022-11-28T11:30:38.812Z,101499.69
2022-11-28T11:33:14.499Z,101490.00
2022-11-28T11:35:48.831Z,101490.94
2022-11-28T11:38:21.339Z,101482.91
2022-11-28T11:40:50.876Z,101477.69
2022-11-28T11:43:29.798Z,101475.69
2022-11-28T11:46:15.241Z,101466.81
2022-11-28T11:48:53.442Z,101457.00
2022-11-28T11:51:32.730Z,101456.03
2022-11-28T11:54:17.346Z,101447.03
2022-11-28T11:56:51.219Z,101444.34
2022-11-28T11:59:30.994Z,101433.47
2022-11-28T12:02:16.723Z,101433.44
2022-11-28T12:04:55.384Z,101427.38
2022-11-28T12:07:33.987Z,101422.97
2022-11-28T12:10:04.577Z,101421.97
2022-11-28T12:12:37.109Z,101414.84
2022-11-28T12:15:13.257Z,101404.97
2022-11-28T12:18:10.614Z,101404.78
2022-11-28T12:21:13.646Z,101400.50
2022-11-28T12:24:07.493Z,101399.53
2022-11-28T12:27:23.786Z,101405.63
2022-11-28T12:30:05.986Z,101408.22
2022-11-28T12:32:33.297Z,101400.09
2022-11-28T12:35:22.210Z,101403.59
2022-11-28T12:38:19.660Z,101392.97
2022-11-28T12:41:32.145Z,101398.25
2022-11-28T12:44:26.656Z,101402.63
2022-11-28T12:47:17.662Z,101399.91
2022-11-28T12:50:03.347Z,101394.56
2022-11-28T12:53:28.388Z,101396.28
2022-11-28T12:56:27.820Z,101387.44
2022-11-28T12:58:59.860Z,101389.13
2022-11-28T13:02:15.698Z,101377.56
2022-11-28T13:05:18.098Z,101365.09
2022-11-28T13:08:48.521Z,101365.09
2022-11-28T13:11:33.792Z,101368.59
2022-11-28T13:14:56.656Z,101369.47
2022-11-28T13:17:53.494Z,101365.91
2022-11-28T13:20:42.630Z,101360.56
2022-11-28T13:23:20.815Z,101356.97
2022-11-28T13:26:03.806Z,101361.34
2022-11-28T13:28:49.676Z,101357.78
2022-11-28T13:32:15.918Z,101362.13
2022-11-28T13:34:43.543Z,101356.81
2022-11-28T13:40:41.202Z,101354.06
2022-11-28T13:43:21.200Z,101356.63
2022-11-28T13:45:48.868Z,101348.56
2022-11-28T13:48:57.382Z,101346.81
2022-11-28T13:51:32.094Z,101355.56
2022-11-28T13:54:21.679Z,101345.78
2022-11-28T13:57:16.863Z,101355.47
2022-11-28T14:00:04.610Z,101358.97
2022-11-28T14:02:47.230Z,101363.44
2022-11-28T14:05:38.762Z,101352.81
2022-11-28T14:08:07.509Z,101361.63
2022-11-28T14:10:52.976Z,101360.78
2022-11-28T14:13:40.465Z,101366.06
2022-11-28T14:16:35.589Z,101364.25
2022-11-28T14:19:13.220Z,101370.44
2022-11-28T14:22:33.270Z,101367.78
2022-11-28T14:25:42.969Z,101371.38
2022-11-28T14:28:37.879Z,101373.16
2022-11-28T14:31:11.268Z,101379.50
2022-11-28T14:33:42.920Z,101373.28
2022-11-28T14:36:34.401Z,101381.19
2022-11-28T14:39:16.636Z,101376.75
2022-11-28T14:42:02.776Z,101370.47
2022-11-28T14:44:56.717Z,101374.91
2022-11-28T14:47:24.024Z,101365.31
2022-11-28T14:50:09.636Z,101367.03
2022-11-28T14:52:43.000Z,101367.97
2022-11-28T14:55:13.111Z,101369.72
2022-11-28T14:58:01.845Z,101358.22
2022-11-28T15:00:49.543Z,101361.75
2022-11-28T15:03:31.613Z,101366.22
2022-11-28T15:06:03.909Z,101364.41
2022-11-28T15:08:48.944Z,101364.41
2022-11-28T15:11:40.367Z,101356.44
2022-11-28T15:14:23.228Z,101358.22
2022-11-28T15:16:57.008Z,101370.66
2022-11-28T15:19:48.311Z,101358.31
2022-11-28T15:22:42.154Z,101361.97
2022-11-28T15:25:23.491Z,101370.03
2022-11-28T15:27:51.720Z,101362.91
2022-11-28T15:30:26.981Z,101363.88
2022-11-28T15:33:00.248Z,101364.81
2022-11-28T15:35:28.967Z,101365.69
2022-11-28T15:37:58.325Z,101365.69
2022-11-28T15:40:35.937Z,101369.22
2022-11-28T15:43:12.622Z,101364.81
2022-11-28T15:45:42.845Z,101360.44
2022-11-28T15:48:39.340Z,101361.31
2022-11-28T15:51:08.598Z,101358.75
2022-11-28T15:53:42.624Z,101364.06
2022-11-28T15:56:15.269Z,101369.53
2022-11-28T15:58:45.505Z,101358.94
2022-11-28T16:01:21.873Z,101361.59
2022-11-28T16:04:15.415Z,101361.66
2022-11-28T16:06:51.054Z,101355.59
2022-11-28T16:09:18.606Z,101360.97
2022-11-28T16:11:50.680Z,101358.38
2022-11-28T16:14:44.196Z,101366.34
2022-11-28T16:17:27.271Z,101365.53
2022-11-28T16:19:57.147Z,101356.72
2022-11-28T16:22:36.806Z,101358.47
2022-11-28T16:25:24.498Z,101352.34
2022-11-28T16:27:53.571Z,101362.09
2022-11-28T16:30:33.203Z,101351.47
2022-11-28T16:33:01.446Z,101350.63
2022-11-28T16:35:40.926Z,101355.97
2022-11-28T16:38:28.137Z,101352.44
2022-11-28T16:41:01.738Z,101359.59
2022-11-28T16:43:37.774Z,101355.22
2022-11-28T16:46:16.285Z,101357.94
2022-11-28T16:48:56.645Z,101361.56
2022-11-28T16:51:28.156Z,101353.63
2022-11-28T16:54:00.725Z,101356.28
2022-11-28T16:56:31.467Z,101356.38
2022-11-28T16:59:08.190Z,101356.38
2022-11-28T17:01:36.766Z,101344.88
2022-11-28T17:04:05.486Z,101345.84
2022-11-28T17:06:37.633Z,101347.63
2022-11-28T17:09:12.046Z,101356.56
2022-11-28T17:11:46.575Z,101357.50
2022-11-28T17:14:14.566Z,101354.00
2022-11-28T17:16:43.507Z,101348.72
2022-11-28T17:19:11.689Z,101346.06
2022-11-28T17:21:55.842Z,101341.59
2022-11-28T17:24:27.325Z,101345.22
2022-11-28T17:26:55.606Z,101346.13
2022-11-28T17:29:25.591Z,101336.38
2022-11-28T17:31:55.456Z,101330.22
2022-11-28T17:34:31.399Z,101323.19
2022-11-28T17:37:01.161Z,101334.66
2022-11-28T17:39:30.723Z,101335.59
2022-11-28T17:42:01.364Z,101331.19
2022-11-28T17:44:32.486Z,101335.63
2022-11-28T17:47:02.380Z,101332.13
2022-11-28T17:49:31.230Z,101332.13
2022-11-28T17:52:01.498Z,101324.16
2022-11-28T17:54:29.736Z,101328.53
2022-11-28T17:56:59.040Z,101325.94
2022-11-28T17:59:27.275Z,101330.44
2022-11-28T18:01:55.075Z,101323.38
2022-11-28T18:04:28.911Z,101327.84
2022-11-28T18:06:58.843Z,101320.78
2022-11-28T18:09:26.928Z,101323.50
2022-11-28T18:11:54.532Z,101327.94
2022-11-28T18:14:22.341Z,101322.63
2022-11-28T18:16:52.102Z,101319.16
2022-11-28T18:19:19.900Z,101326.25
2022-11-28T18:21:48.120Z,101320.13
2022-11-28T18:24:15.842Z,101332.50
2022-11-28T18:26:43.359Z,101334.34
2022-11-28T18:29:11.031Z,101321.06
2022-11-28T18:31:38.689Z,101320.19
2022-11-28T18:34:08.200Z,101317.56
2022-11-28T18:36:38.361Z,101311.47
2022-11-28T18:39:09.902Z,101313.28
2022-11-28T18:41:37.832Z,101318.72
2022-11-28T18:44:06.634Z,101318.72
2022-11-28T18:46:35.567Z,101316.06
2022-11-28T18:49:03.554Z,101307.22
2022-11-28T18:51:35.574Z,101309.88
2022-11-28T18:54:06.837Z,101308.19
2022-11-28T18:56:35.092Z,101307.44
2022-11-28T18:59:03.561Z,101311.00
2022-11-28T19:01:34.439Z,101310.16
2022-11-28T19:04:08.781Z,101317.19
2022-11-28T19:06:37.518Z,101319.84
2022-11-28T19:09:09.629Z,101307.50
2022-11-28T19:11:38.618Z,101313.59
2022-11-28T19:14:08.269Z,101318.13
2022-11-28T19:16:37.801Z,101315.47
2022-11-28T19:19:06.629Z,101313.72
2022-11-28T19:21:36.665Z,101314.59
2022-11-28T19:24:08.069Z,101318.97
2022-11-28T19:26:36.093Z,101311.94
2022-11-28T19:29:03.339Z,101324.28
2022-11-28T19:31:34.625Z,101320.78
2022-11-28T19:34:13.599Z,101336.66
2022-11-28T19:36:48.120Z,101333.13
2022-11-28T19:39:19.313Z,101334.91
2022-11-28T19:41:47.475Z,101328.78
2022-11-28T19:44:15.717Z,101325.31
2022-11-28T19:46:43.619Z,101322.72
2022-11-28T19:49:22.708Z,101325.38
2022-11-28T19:51:51.147Z,101325.38
2022-11-28T19:54:19.919Z,101328.88
2022-11-28T19:56:49.229Z,101327.97
2022-11-28T19:59:17.554Z,101328.84
2022-11-28T20:01:48.304Z,101341.28
2022-11-28T20:04:16.464Z,101337.88
2022-11-28T20:06:43.541Z,101343.25
2022-11-28T20:09:13.945Z,101337.97
2022-11-28T20:11:44.280Z,101331.88
2022-11-28T20:14:16.369Z,101332.78
2022-11-28T20:16:46.868Z,101337.19
2022-11-28T20:19:16.156Z,101331.91
2022-11-28T20:21:46.172Z,101331.03
2022-11-28T20:24:15.025Z,101333.72
2022-11-28T20:26:44.050Z,101334.66
2022-11-28T20:29:16.161Z,101328.53
2022-11-28T20:31:45.878Z,101323.28
2022-11-28T20:34:18.021Z,101326.81
2022-11-28T20:36:46.162Z,101330.38
2022-11-28T20:39:13.969Z,101322.44
2022-11-28T20:41:41.155Z,101325.09
2022-11-28T20:44:09.469Z,101327.75
2022-11-28T20:46:37.044Z,101335.72
2022-11-28T20:49:07.610Z,101326.91
2022-11-28T20:51:36.044Z,101332.22
2022-11-28T20:54:05.884Z,101330.47
2022-11-28T20:57:19.582Z,101334.94
2022-11-28T20:59:32.543Z,101328.75
2022-11-28T21:02:02.071Z,101319.88
2022-11-28T21:04:32.004Z,101329.66
2022-11-28T21:06:59.059Z,101323.44
2022-11-28T21:09:26.169Z,101335.78
2022-11-28T21:11:58.862Z,101322.53
2022-11-28T21:14:29.227Z,101318.13
2022-11-28T21:16:58.238Z,101321.66
2022-11-28T21:19:25.569Z,101320.72
2022-11-28T21:21:52.695Z,101316.34
2022-11-28T21:24:20.116Z,101318.13
2022-11-28T21:26:52.892Z,101312.84
2022-11-28T21:29:22.296Z,101317.25
2022-11-28T21:31:49.467Z,101319.00
2022-11-28T21:34:17.658Z,101319.00
2022-11-28T21:36:45.423Z,101318.13
2022-11-28T21:39:20.111Z,101312.00
2022-11-28T21:41:48.304Z,101307.56
2022-11-28T21:44:23.052Z,101305.88
2022-11-28T21:46:50.194Z,101312.03
2022-11-28T21:49:17.873Z,101307.66
2022-11-28T21:51:45.089Z,101309.44
2022-11-28T21:54:12.795Z,101313.13
2022-11-28T21:56:40.417Z,101306.97
2022-11-28T21:59:08.431Z,101307.75
2022-11-28T22:01:37.051Z,101321.00
2022-11-28T22:04:05.292Z,101319.19
2022-11-28T22:06:33.246Z,101317.34
2022-11-28T22:09:09.232Z,101319.91
2022-11-28T22:11:38.734Z,101319.09
2022-11-28T22:14:06.018Z,101315.63
2022-11-28T22:16:33.428Z,101315.63
2022-11-28T22:19:01.248Z,101307.63
2022-11-28T22:21:51.771Z,101310.28
2022-11-28T22:24:15.946Z,101310.31
2022-11-28T22:26:44.227Z,101312.97
2022-11-28T22:29:12.444Z,101318.34
2022-11-28T22:31:39.830Z,101314.75
2022-11-28T22:34:09.364Z,101311.25
2022-11-28T22:36:36.812Z,101311.25
2022-11-28T22:39:05.088Z,101314.75
2022-11-28T22:41:32.318Z,101316.47
2022-11-28T22:44:01.796Z,101313.81
2022-11-28T22:46:32.178Z,101314.69
2022-11-28T22:49:01.477Z,101314.69
2022-11-28T22:51:30.488Z,101319.91
2022-11-28T22:54:01.077Z,101318.13
2022-11-28T22:56:32.354Z,101311.13
2022-11-28T22:59:01.589Z,101318.16
2022-11-28T23:01:31.633Z,101313.81
2022-11-28T23:04:00.795Z,101312.00
2022-11-28T23:06:31.448Z,101309.28
2022-11-28T23:09:00.874Z,101313.72
2022-11-28T23:11:35.338Z,101318.13
2022-11-28T23:14:05.328Z,101323.53
2022-11-28T23:16:39.722Z,101317.41
2022-11-28T23:19:13.185Z,101317.41
2022-11-28T23:21:43.153Z,101309.44
2022-11-28T23:24:18.390Z,101313.03
2022-11-28T23:26:47.489Z,101319.13
2022-11-28T23:29:15.908Z,101312.94
2022-11-28T23:31:44.459Z,101306.84
2022-11-28T23:34:13.251Z,101309.53
2022-11-28T23:36:46.672Z,101309.53
2022-11-28T23:39:20.909Z,101307.81
2022-11-28T23:41:48.791Z,101301.59
2022-11-28T23:44:17.880Z,101300.72
2022-11-28T23:46:46.034Z,101306.91
2022-11-28T23:49:13.793Z,101298.94
2022-11-28T23:51:41.369Z,101297.19
2022-11-28T23:54:10.362Z,101299.00
2022-11-28T23:56:40.180Z,101301.66
2022-11-28T23:59:10.218Z,101292.00
